Time;durP1;ratioP1;P1;durP2;ratioP2;P2;SDS_P1;SDS_P2;PMS_P1;PMS_P2;Temp;Humidity;BMP_temperature;BMP_pressure;BME280_temperature;BME280_humidity;BME280_pressure;Samples;Min_cycle;Max_cycle;Signal;HPM_P1;HPM_P2
2023/10/10 00:00:48;;;;;;;;;;;16.00;99.90;;;;;;5113032;28;19953;-32
2023/10/10 00:03:17;;;;;;;;;;;16.00;99.90;;;;;;5112984;28;20070;-32
2023/10/10 00:05:46;;;;;;;;;;;16.00;99.90;;;;;;5111674;28;19948;-32
2023/10/10 00:08:12;;;;;;;;;;;16.00;99.90;;;;;;5112966;28;19985;-32
2023/10/10 00:10:50;;;;;;;;;;;16.00;99.90;;;;;;5111995;28;19988;-32
2023/10/10 00:13:19;;;;;;;;;;;16.00;99.90;;;;;;5111847;28;19963;-32
2023/10/10 00:15:51;;;;;;;;;;;16.00;99.90;;;;;;5111987;28;19956;-33
2023/10/10 00:18:21;;;;;;;;;;;16.00;99.90;;;;;;5111948;28;20001;-32
2023/10/10 00:21:06;;;;;;;;;;;16.00;99.90;;;;;;5112128;28;19990;-32
2023/10/10 00:23:38;;;;;;;;;;;16.00;99.90;;;;;;5111613;28;19990;-32
2023/10/10 00:26:07;;;;;;;;;;;16.00;99.90;;;;;;5112893;28;19943;-32
2023/10/10 00:28:35;;;;;;;;;;;16.00;99.90;;;;;;5111788;28;20317;-33
2023/10/10 00:31:05;;;;;;;;;;;16.00;99.90;;;;;;5114337;28;20322;-32
2023/10/10 00:33:32;;;;;;;;;;;16.00;99.90;;;;;;5116597;28;20008;-32
2023/10/10 00:36:00;;;;;;;;;;;16.00;99.90;;;;;;5116485;28;19994;-32
2023/10/10 00:38:29;;;;;;;;;;;16.00;99.90;;;;;;5116748;28;19978;-32
2023/10/10 00:40:57;;;;;;;;;;;16.00;99.90;;;;;;5116457;28;20379;-32
2023/10/10 00:43:24;;;;;;;;;;;16.00;99.90;;;;;;5115482;28;20414;-32
2023/10/10 00:45:53;;;;;;;;;;;15.90;99.90;;;;;;5115530;28;19953;-33
2023/10/10 00:48:22;;;;;;;;;;;16.00;99.90;;;;;;5114854;28;20473;-32
2023/10/10 00:50:51;;;;;;;;;;;16.00;99.90;;;;;;5116467;28;19993;-32
2023/10/10 00:53:21;;;;;;;;;;;16.00;99.90;;;;;;5116319;28;19966;-32
2023/10/10 00:55:55;;;;;;;;;;;15.90;99.90;;;;;;5115082;28;20027;-32
2023/10/10 00:58:23;;;;;;;;;;;16.00;99.90;;;;;;5115207;28;19943;-32
2023/10/10 01:00:52;;;;;;;;;;;16.00;99.90;;;;;;5114922;28;19945;-32
2023/10/10 01:03:21;;;;;;;;;;;16.00;99.90;;;;;;5115214;28;19941;-34
2023/10/10 01:05:52;;;;;;;;;;;16.00;99.90;;;;;;5116265;28;20041;-32
2023/10/10 01:08:20;;;;;;;;;;;15.90;99.90;;;;;;5116039;28;19943;-32
2023/10/10 01:10:49;;;;;;;;;;;16.00;99.90;;;;;;5114992;28;19947;-33
2023/10/10 01:13:16;;;;;;;;;;;15.90;99.90;;;;;;5115756;28;19982;-33
2023/10/10 01:15:43;;;;;;;;;;;15.90;99.90;;;;;;5115770;28;19997;-33
2023/10/10 01:18:15;;;;;;;;;;;16.00;99.90;;;;;;5114897;28;19944;-33
2023/10/10 01:20:46;;;;;;;;;;;16.00;99.90;;;;;;5114968;28;20059;-32
2023/10/10 01:23:14;;;;;;;;;;;16.00;99.90;;;;;;5115594;28;19938;-32
2023/10/10 01:25:45;;;;;;;;;;;16.00;99.90;;;;;;5114798;28;19947;-33
2023/10/10 01:28:23;;;;;;;;;;;15.90;99.90;;;;;;5114893;28;19943;-32
2023/10/10 01:30:59;;;;;;;;;;;16.00;99.90;;;;;;5115808;28;20300;-32
2023/10/10 01:33:35;;;;;;;;;;;16.00;99.90;;;;;;5114528;28;19966;-32
2023/10/10 01:36:11;;;;;;;;;;;15.90;99.90;;;;;;5149104;27;19944;-32
2023/10/10 01:38:59;;;;;;;;;;;15.90;99.90;;;;;;5114441;28;19997;-32
2023/10/10 01:41:34;;;;;;;;;;;15.90;99.90;;;;;;5109803;28;19955;-32
2023/10/10 01:44:10;;;;;;;;;;;16.00;99.90;;;;;;5115338;28;20002;-33
2023/10/10 01:46:36;;;;;;;;;;;16.00;99.90;;;;;;5114253;28;19947;-33
2023/10/10 01:49:05;;;;;;;;;;;16.00;99.90;;;;;;5114206;28;20039;-32
2023/10/10 01:51:34;;;;;;;;;;;15.90;99.90;;;;;;5148367;27;20068;-33
2023/10/10 01:54:06;;;;;;;;;;;16.00;99.90;;;;;;5115003;28;20448;-32
2023/10/10 01:56:32;;;;;;;;;;;16.00;99.90;;;;;;5113875;28;19951;-32
2023/10/10 01:59:03;;;;;;;;;;;16.00;99.90;;;;;;5114049;28;20353;-33
2023/10/10 02:01:31;;;;;;;;;;;15.90;99.90;;;;;;5148453;27;20035;-32
2023/10/10 02:03:58;;;;;;;;;;;15.90;99.90;;;;;;5114747;28;19988;-32
2023/10/10 02:06:27;;;;;;;;;;;16.00;99.90;;;;;;5114030;28;19941;-32
2023/10/10 02:08:56;;;;;;;;;;;15.90;99.90;;;;;;5114935;28;20254;-31
2023/10/10 02:11:23;;;;;;;;;;;16.00;99.90;;;;;;5148150;27;20408;-32
2023/10/10 02:13:50;;;;;;;;;;;16.00;99.90;;;;;;5114471;28;20504;-32
2023/10/10 02:16:18;;;;;;;;;;;15.90;99.90;;;;;;5113281;28;19943;-32
2023/10/10 02:18:51;;;;;;;;;;;16.00;99.90;;;;;;5114286;28;19986;-32
2023/10/10 02:21:31;;;;;;;;;;;16.00;99.90;;;;;;5114822;28;19951;-31
2023/10/10 02:24:12;;;;;;;;;;;15.90;99.90;;;;;;5114466;28;19955;-32
2023/10/10 02:26:39;;;;;;;;;;;15.90;99.90;;;;;;5113611;28;20009;-32
2023/10/10 02:29:17;;;;;;;;;;;15.90;99.90;;;;;;5114275;28;20033;-32
2023/10/10 02:31:48;;;;;;;;;;;15.90;99.90;;;;;;5114351;28;19942;-32
2023/10/10 02:34:15;;;;;;;;;;;15.90;99.90;;;;;;5114239;28;19966;-32
2023/10/10 02:36:42;;;;;;;;;;;15.90;99.90;;;;;;5114308;28;19954;-32
2023/10/10 02:39:27;;;;;;;;;;;15.80;99.90;;;;;;5113056;28;19944;-33
2023/10/10 02:41:59;;;;;;;;;;;15.80;99.90;;;;;;5113042;28;19988;-33
2023/10/10 02:44:46;;;;;;;;;;;15.80;99.90;;;;;;5113235;28;19944;-33
2023/10/10 02:47:13;;;;;;;;;;;15.80;99.90;;;;;;5113899;28;20063;-32
2023/10/10 02:49:42;;;;;;;;;;;15.80;99.90;;;;;;5113826;28;19953;-33
2023/10/10 02:52:14;;;;;;;;;;;15.70;99.90;;;;;;5146579;27;19998;-32
2023/10/10 02:54:53;;;;;;;;;;;15.70;99.90;;;;;;5114000;28;19986;-33
2023/10/10 02:57:30;;;;;;;;;;;15.70;99.90;;;;;;5113990;28;20034;-32
2023/10/10 03:00:15;;;;;;;;;;;15.70;99.90;;;;;;5112722;28;20035;-32
2023/10/10 03:02:41;;;;;;;;;;;15.60;99.90;;;;;;5147225;27;19948;-32
2023/10/10 03:05:14;;;;;;;;;;;15.60;99.90;;;;;;5112505;28;19942;-32
2023/10/10 03:07:42;;;;;;;;;;;15.60;99.90;;;;;;5114011;28;19939;-32
2023/10/10 03:10:22;;;;;;;;;;;15.60;99.90;;;;;;5113656;28;19961;-33
2023/10/10 03:12:49;;;;;;;;;;;15.60;99.90;;;;;;5113666;28;20080;-32
2023/10/10 03:15:27;;;;;;;;;;;15.50;99.90;;;;;;5113419;28;19964;-32
2023/10/10 03:18:15;;;;;;;;;;;15.50;99.90;;;;;;5146899;27;20027;-32
2023/10/10 03:20:51;;;;;;;;;;;15.50;99.90;;;;;;5112183;28;19947;-32
2023/10/10 03:23:31;;;;;;;;;;;15.50;99.90;;;;;;5113412;28;20296;-32
2023/10/10 03:26:05;;;;;;;;;;;15.50;99.90;;;;;;5111942;28;19944;-32
2023/10/10 03:28:34;;;;;;;;;;;15.50;99.90;;;;;;5113481;28;19948;-32
2023/10/10 03:31:08;;;;;;;;;;;15.50;99.90;;;;;;5113339;28;19949;-32
2023/10/10 03:33:37;;;;;;;;;;;15.50;99.90;;;;;;5113241;28;19954;-33
2023/10/10 03:36:14;;;;;;;;;;;15.50;99.90;;;;;;5112314;28;19944;-33
2023/10/10 03:39:16;;;;;;;;;;;15.50;99.90;;;;;;5146451;27;19949;-32
2023/10/10 05:25:51;;;;;;;;;;;15.50;99.90;;;;;;5115716;28;19947;-31
2023/10/10 05:28:19;;;;;;;;;;;15.50;99.90;;;;;;5114762;28;20001;-31
2023/10/10 05:30:46;;;;;;;;;;;15.50;99.90;;;;;;5115608;28;20004;-32
2023/10/10 05:33:13;;;;;;;;;;;15.50;99.90;;;;;;5115389;28;19964;-31
2023/10/10 05:35:43;;;;;;;;;;;15.50;99.90;;;;;;5115397;28;19991;-32
2023/10/10 05:38:10;;;;;;;;;;;15.50;99.90;;;;;;5148735;27;20030;-32
2023/10/10 05:40:38;;;;;;;;;;;15.50;99.90;;;;;;5115507;28;19994;-32
2023/10/10 05:43:09;;;;;;;;;;;15.40;99.90;;;;;;5114469;28;19945;-32
2023/10/10 05:45:36;;;;;;;;;;;15.40;99.90;;;;;;5148805;27;20030;-32
2023/10/10 05:48:03;;;;;;;;;;;15.40;99.90;;;;;;5115055;28;20017;-32
2023/10/10 05:50:30;;;;;;;;;;;15.30;99.90;;;;;;5113955;28;20404;-32
2023/10/10 05:52:58;;;;;;;;;;;15.30;99.90;;;;;;5113713;28;20402;-32
2023/10/10 05:55:28;;;;;;;;;;;15.30;99.90;;;;;;5114184;28;20000;-32
2023/10/10 05:57:55;;;;;;;;;;;15.30;99.90;;;;;;5114995;28;19943;-33
2023/10/10 06:00:25;;;;;;;;;;;15.30;99.90;;;;;;5115080;28;19990;-32
2023/10/10 06:02:52;;;;;;;;;;;15.20;99.90;;;;;;5114841;28;19945;-33
2023/10/10 06:05:19;;;;;;;;;;;15.20;99.90;;;;;;5113889;28;20006;-31
2023/10/10 06:07:48;;;;;;;;;;;15.20;99.90;;;;;;5113653;28;19946;-32
2023/10/10 06:10:16;;;;;;;;;;;15.20;99.90;;;;;;5114792;28;19971;-32
2023/10/10 06:12:43;;;;;;;;;;;15.20;99.90;;;;;;5113756;28;20144;-31
2023/10/10 06:15:11;;;;;;;;;;;15.20;99.90;;;;;;5114787;28;19942;-33
2023/10/10 06:17:38;;;;;;;;;;;15.20;99.90;;;;;;5114540;28;19943;-32
2023/10/10 06:20:07;;;;;;;;;;;15.20;99.90;;;;;;5114870;28;19947;-32
2023/10/10 06:22:33;;;;;;;;;;;15.30;99.90;;;;;;5114479;28;20410;-32
2023/10/10 06:25:00;;;;;;;;;;;15.20;99.90;;;;;;5113550;28;19948;-31
2023/10/10 06:27:28;;;;;;;;;;;15.20;99.90;;;;;;5112524;28;19949;-32
2023/10/10 06:29:58;;;;;;;;;;;15.30;99.90;;;;;;5113331;28;20462;-32
2023/10/10 06:32:25;;;;;;;;;;;15.30;99.90;;;;;;5114291;28;19949;-32
2023/10/10 06:35:14;;;;;;;;;;;15.30;99.90;;;;;;5112901;28;19963;-33
2023/10/10 06:37:40;;;;;;;;;;;15.30;99.90;;;;;;5114274;27;19987;-32
2023/10/10 06:40:08;;;;;;;;;;;15.40;99.90;;;;;;5113202;28;20309;-32
2023/10/10 06:42:37;;;;;;;;;;;15.40;99.90;;;;;;5114113;28;19944;-32
2023/10/10 06:45:07;;;;;;;;;;;15.40;99.90;;;;;;5113111;28;19942;-32
2023/10/10 06:47:34;;;;;;;;;;;15.50;99.90;;;;;;5112648;28;20449;-32
2023/10/10 06:50:01;;;;;;;;;;;15.50;99.90;;;;;;5114220;27;19952;-32
2023/10/10 06:52:28;;;;;;;;;;;15.50;99.90;;;;;;5112611;28;20322;-33
2023/10/10 06:54:55;;;;;;;;;;;15.60;99.90;;;;;;5113908;28;19978;-33
2023/10/10 06:57:22;;;;;;;;;;;15.60;99.90;;;;;;5113796;28;19996;-32
2023/10/10 06:59:51;;;;;;;;;;;15.70;99.90;;;;;;5112906;28;19941;-32
2023/10/10 07:02:21;;;;;;;;;;;15.70;99.90;;;;;;5113655;28;19951;-32
2023/10/10 07:04:52;;;;;;;;;;;15.70;99.90;;;;;;5112962;28;19944;-32
2023/10/10 07:07:20;;;;;;;;;;;15.70;99.90;;;;;;5112463;28;20384;-32
2023/10/10 07:09:47;;;;;;;;;;;15.80;99.90;;;;;;5147047;27;19949;-32
2023/10/10 07:12:16;;;;;;;;;;;15.80;99.90;;;;;;5113628;28;19949;-32
2023/10/10 07:14:45;;;;;;;;;;;15.90;99.90;;;;;;5113361;28;20438;-32
2023/10/10 07:17:13;;;;;;;;;;;15.90;99.90;;;;;;5112672;28;19942;-33
2023/10/10 07:21:04;;;;;;;;;;;15.90;99.90;;;;;;5113386;28;19947;-33
2023/10/10 07:22:33;;;;;;;;;;;15.90;99.90;;;;;;5113413;27;19942;-32
2023/10/10 07:25:06;;;;;;;;;;;15.90;99.90;;;;;;5112052;28;19947;-33
2023/10/10 07:27:35;;;;;;;;;;;15.90;99.90;;;;;;5112208;28;20320;-33
2023/10/10 07:30:08;;;;;;;;;;;16.00;99.90;;;;;;5112415;28;19991;-32
2023/10/10 07:32:39;;;;;;;;;;;16.00;99.90;;;;;;5112374;28;19947;-32
2023/10/10 07:35:06;;;;;;;;;;;16.00;99.90;;;;;;5111923;28;20014;-32
2023/10/10 07:37:32;;;;;;;;;;;16.10;99.90;;;;;;5113291;28;19943;-32
2023/10/10 07:40:18;;;;;;;;;;;16.10;99.90;;;;;;5111710;28;19947;-32
2023/10/10 07:42:49;;;;;;;;;;;16.10;99.90;;;;;;5112346;28;19997;-31
2023/10/10 07:45:19;;;;;;;;;;;16.10;99.90;;;;;;5113171;28;20439;-32
2023/10/10 07:50:47;;;;;;;;;;;16.10;99.90;;;;;;5110205;28;20154;-32
2023/10/10 07:53:13;;;;;;;;;;;16.20;99.90;;;;;;5112274;28;19950;-31
2023/10/10 07:55:53;;;;;;;;;;;16.20;99.90;;;;;;5146198;27;20009;-32
2023/10/10 07:58:23;;;;;;;;;;;16.20;99.90;;;;;;5113087;28;20011;-32
2023/10/10 08:00:50;;;;;;;;;;;16.30;99.90;;;;;;5111529;28;20408;-32
2023/10/10 08:03:20;;;;;;;;;;;16.30;99.90;;;;;;5112839;28;20390;-32
2023/10/10 08:05:48;;;;;;;;;;;16.40;99.90;;;;;;5112842;28;20423;-32
2023/10/10 08:08:15;;;;;;;;;;;16.40;99.90;;;;;;5146368;27;20040;-32
2023/10/10 08:10:44;;;;;;;;;;;16.50;99.90;;;;;;5112895;28;19946;-32
2023/10/10 08:13:11;;;;;;;;;;;16.40;99.90;;;;;;5111822;28;19990;-32
2023/10/10 08:15:48;;;;;;;;;;;16.50;99.90;;;;;;5112771;28;20020;-32
2023/10/10 08:18:29;;;;;;;;;;;16.50;99.90;;;;;;5111964;28;19943;-32
2023/10/10 08:21:10;;;;;;;;;;;16.50;99.90;;;;;;5111870;28;20408;-32
2023/10/10 08:23:42;;;;;;;;;;;16.50;99.90;;;;;;5112783;28;20316;-32
2023/10/10 08:26:10;;;;;;;;;;;16.60;99.90;;;;;;5111670;28;19952;-32
2023/10/10 08:28:36;;;;;;;;;;;16.60;99.90;;;;;;5111456;28;20565;-32
2023/10/10 08:31:03;;;;;;;;;;;16.60;99.90;;;;;;5111603;28;20415;-32
2023/10/10 08:33:32;;;;;;;;;;;16.70;99.90;;;;;;5146028;27;20022;-32
2023/10/10 08:36:00;;;;;;;;;;;16.70;99.90;;;;;;5111678;28;19942;-32
2023/10/10 08:38:27;;;;;;;;;;;16.80;99.90;;;;;;5111668;28;19950;-32
2023/10/10 08:40:57;;;;;;;;;;;16.90;99.90;;;;;;5111407;28;19989;-32
2023/10/10 08:43:26;;;;;;;;;;;16.90;99.90;;;;;;5112824;28;19943;-32
2023/10/10 08:45:54;;;;;;;;;;;17.10;99.90;;;;;;5111520;28;20413;-33
2023/10/10 08:48:26;;;;;;;;;;;17.10;99.90;;;;;;5112276;28;19971;-33
2023/10/10 08:50:53;;;;;;;;;;;17.20;99.90;;;;;;5112391;28;19942;-32
2023/10/10 08:53:22;;;;;;;;;;;17.30;99.90;;;;;;5116210;28;20405;-31
2023/10/10 08:55:56;;;;;;;;;;;17.40;99.90;;;;;;5115945;28;19968;-32
2023/10/10 08:58:22;;;;;;;;;;;17.40;99.90;;;;;;5115403;28;20336;-33
2023/10/10 09:00:49;;;;;;;;;;;17.40;99.90;;;;;;5116072;28;19944;-32
2023/10/10 09:03:16;;;;;;;;;;;17.50;99.90;;;;;;5116204;28;19947;-32
2023/10/10 09:05:43;;;;;;;;;;;17.50;99.90;;;;;;5115900;27;20459;-32
2023/10/10 09:08:15;;;;;;;;;;;17.50;99.90;;;;;;5115983;28;20026;-32
2023/10/10 09:10:46;;;;;;;;;;;17.50;99.90;;;;;;5115270;28;19945;-32
2023/10/10 09:13:13;;;;;;;;;;;17.50;99.90;;;;;;5115980;28;20308;-32
2023/10/10 09:15:48;;;;;;;;;;;17.50;99.90;;;;;;5115775;28;19965;-32
2023/10/10 09:18:17;;;;;;;;;;;17.50;99.90;;;;;;5115774;28;19942;-33
2023/10/10 09:20:45;;;;;;;;;;;17.60;99.90;;;;;;5114564;28;19943;-32
2023/10/10 09:23:22;;;;;;;;;;;17.70;99.90;;;;;;5114746;28;19998;-33
2023/10/10 09:26:09;;;;;;;;;;;17.90;99.90;;;;;;5115831;28;20009;-33
2023/10/10 09:28:45;;;;;;;;;;;18.00;99.90;;;;;;5114359;28;19952;-32
2023/10/10 09:31:20;;;;;;;;;;;18.10;99.90;;;;;;5114502;28;19948;-33
2023/10/10 09:33:47;;;;;;;;;;;18.20;99.90;;;;;;5114400;28;19944;-33
2023/10/10 09:36:15;;;;;;;;;;;18.20;99.90;;;;;;5115560;28;19951;-32
2023/10/10 09:38:45;;;;;;;;;;;18.30;99.90;;;;;;5115695;28;20348;-31
2023/10/10 09:41:27;;;;;;;;;;;18.40;99.90;;;;;;5115376;28;19947;-33
2023/10/10 09:44:27;;;;;;;;;;;18.40;99.90;;;;;;5114181;28;19942;-32
2023/10/10 09:46:59;;;;;;;;;;;18.50;99.90;;;;;;5148035;27;20008;-32
2023/10/10 09:49:40;;;;;;;;;;;18.70;99.90;;;;;;5113955;28;19989;-32
2023/10/10 09:54:55;;;;;;;;;;;18.90;99.90;;;;;;5115143;28;20057;-32
2023/10/10 09:57:26;;;;;;;;;;;18.90;99.90;;;;;;5115058;28;19950;-33
2023/10/10 09:59:56;;;;;;;;;;;19.00;99.90;;;;;;5114095;28;20035;-32
2023/10/10 10:02:40;;;;;;;;;;;19.10;99.90;;;;;;5113636;28;19952;-32
2023/10/10 10:05:13;;;;;;;;;;;19.20;99.90;;;;;;5115115;28;19950;-32
2023/10/10 10:07:56;;;;;;;;;;;19.20;99.90;;;;;;5114058;28;19992;-31
2023/10/10 10:10:34;;;;;;;;;;;19.30;99.90;;;;;;5148280;27;19941;-32
2023/10/10 10:13:13;;;;;;;;;;;19.40;99.90;;;;;;5148272;27;20059;-32
2023/10/10 10:15:49;;;;;;;;;;;19.50;99.90;;;;;;5114799;28;19958;-33
2023/10/10 10:18:20;;;;;;;;;;;19.60;99.90;;;;;;5114831;28;19947;-32
2023/10/10 10:20:47;;;;;;;;;;;19.60;99.90;;;;;;5113282;28;19950;-33
2023/10/10 10:23:25;;;;;;;;;;;19.70;99.90;;;;;;5113557;28;19993;-32
2023/10/10 10:25:53;;;;;;;;;;;19.70;99.90;;;;;;5113628;28;19945;-33
2023/10/10 10:28:28;;;;;;;;;;;19.80;99.90;;;;;;5113224;28;19994;-32
2023/10/10 10:30:55;;;;;;;;;;;19.90;99.90;;;;;;5113533;28;19995;-33
2023/10/10 10:33:22;;;;;;;;;;;19.90;99.90;;;;;;5114117;28;20392;-34
2023/10/10 10:36:14;;;;;;;;;;;20.00;99.90;;;;;;5114112;28;19968;-33
2023/10/10 10:39:17;;;;;;;;;;;20.10;99.90;;;;;;5114077;28;20311;-32
2023/10/10 10:41:42;;;;;;;;;;;20.20;99.90;;;;;;5147061;27;19945;-33
2023/10/10 10:44:13;;;;;;;;;;;20.30;99.90;;;;;;5113041;28;20405;-33
2023/10/10 10:46:48;;;;;;;;;;;20.40;99.90;;;;;;5112602;28;19979;-33
2023/10/10 10:49:15;;;;;;;;;;;20.50;99.90;;;;;;5113897;28;20618;-33
2023/10/10 10:51:47;;;;;;;;;;;20.60;99.90;;;;;;5113120;28;19968;-32
2023/10/10 10:54:29;;;;;;;;;;;20.60;99.90;;;;;;5113031;28;19949;-33
2023/10/10 10:57:02;;;;;;;;;;;20.70;99.90;;;;;;5113955;28;19947;-33
2023/10/10 10:59:45;;;;;;;;;;;20.80;99.90;;;;;;5113816;28;20031;-33
2023/10/10 11:02:16;;;;;;;;;;;20.90;99.90;;;;;;5113887;28;19948;-33
2023/10/10 11:04:49;;;;;;;;;;;21.10;99.90;;;;;;5111369;28;19945;-33
2023/10/10 11:07:27;;;;;;;;;;;21.10;99.90;;;;;;5113712;28;19938;-33
2023/10/10 11:09:54;;;;;;;;;;;21.20;99.90;;;;;;5113681;28;20404;-33
2023/10/10 11:12:32;;;;;;;;;;;21.20;99.90;;;;;;5113555;28;19946;-32
2023/10/10 11:15:05;;;;;;;;;;;21.20;99.90;;;;;;5112962;28;19967;-34
2023/10/10 11:17:38;;;;;;;;;;;21.30;99.90;;;;;;5112704;28;19944;-32
2023/10/10 11:20:29;;;;;;;;;;;21.30;99.90;;;;;;5113446;28;19947;-33
2023/10/10 11:23:06;;;;;;;;;;;21.30;99.90;;;;;;5112609;28;19952;-32
2023/10/10 11:25:41;;;;;;;;;;;21.30;99.90;;;;;;5112466;28;20439;-33
2023/10/10 11:28:21;;;;;;;;;;;21.40;99.90;;;;;;5113174;28;19943;-32
2023/10/10 11:30:51;;;;;;;;;;;21.40;99.90;;;;;;5112288;28;20402;-33
2023/10/10 11:33:48;;;;;;;;;;;21.60;99.90;;;;;;5113478;28;20472;-32
2023/10/10 11:36:21;;;;;;;;;;;21.80;99.90;;;;;;5111982;28;20001;-32
2023/10/10 11:39:16;;;;;;;;;;;22.00;99.90;;;;;;5113182;28;20410;-33
2023/10/10 11:41:45;;;;;;;;;;;22.20;99.90;;;;;;5113054;28;19955;-32
2023/10/10 11:44:17;;;;;;;;;;;22.30;99.90;;;;;;5112201;28;19941;-32
2023/10/10 11:46:45;;;;;;;;;;;22.50;99.90;;;;;;5146598;27;20051;-32
2023/10/10 11:49:15;;;;;;;;;;;22.60;99.90;;;;;;5146758;27;19943;-33
2023/10/10 11:51:42;;;;;;;;;;;22.60;99.90;;;;;;5112047;28;20032;-32
2023/10/10 11:54:08;;;;;;;;;;;22.70;99.90;;;;;;5111906;28;20311;-33
2023/10/10 11:56:35;;;;;;;;;;;22.60;99.90;;;;;;5113021;28;19980;-33
2023/10/10 11:59:06;;;;;;;;;;;22.60;99.90;;;;;;5112089;28;19998;-32
2023/10/10 12:04:30;;;;;;;;;;;22.50;99.90;;;;;;5111723;28;19950;-34
2023/10/10 12:07:00;;;;;;;;;;;22.40;99.90;;;;;;5111832;28;19949;-33
2023/10/10 12:09:27;;;;;;;;;;;22.30;99.90;;;;;;5111788;28;20348;-33
2023/10/10 12:11:58;;;;;;;;;;;22.30;99.90;;;;;;5111519;28;19942;-33
2023/10/10 12:14:29;;;;;;;;;;;22.30;99.90;;;;;;5111989;28;19999;-32
2023/10/10 12:16:57;;;;;;;;;;;22.30;99.90;;;;;;5111441;28;19962;-33
2023/10/10 12:19:27;;;;;;;;;;;22.20;99.90;;;;;;5111626;28;20367;-32
2023/10/10 12:21:55;;;;;;;;;;;22.20;99.90;;;;;;5112994;28;19937;-32
2023/10/10 12:24:22;;;;;;;;;;;22.20;99.90;;;;;;5113023;28;19942;-33
2023/10/10 12:26:54;;;;;;;;;;;22.30;99.90;;;;;;5115636;28;20006;-35
2023/10/10 12:29:22;;;;;;;;;;;22.50;99.90;;;;;;5115767;28;20452;-33
2023/10/10 12:31:55;;;;;;;;;;;22.60;99.90;;;;;;5116735;28;19967;-33
2023/10/10 12:34:23;;;;;;;;;;;22.80;99.90;;;;;;5115817;28;19951;-34
2023/10/10 12:36:58;;;;;;;;;;;22.80;99.90;;;;;;5116883;28;20006;-32
2023/10/10 12:39:27;;;;;;;;;;;23.00;99.90;;;;;;5115505;28;19949;-33
2023/10/10 12:41:54;;;;;;;;;;;23.00;99.90;;;;;;5149939;27;19944;-33
2023/10/10 12:44:23;;;;;;;;;;;22.90;99.90;;;;;;5116528;28;19947;-33
2023/10/10 12:46:54;;;;;;;;;;;22.80;99.90;;;;;;5115060;28;20329;-33
2023/10/10 12:49:28;;;;;;;;;;;22.70;99.90;;;;;;5149729;27;19984;-33
2023/10/10 12:51:57;;;;;;;;;;;22.60;99.90;;;;;;5116380;28;20050;-32
2023/10/10 12:54:34;;;;;;;;;;;22.50;99.90;;;;;;5115330;28;20455;-33
2023/10/10 12:57:05;;;;;;;;;;;22.40;99.90;;;;;;5114855;28;19967;-34
2023/10/10 12:59:33;;;;;;;;;;;22.40;99.90;;;;;;5116088;28;19941;-33
2023/10/10 13:02:00;;;;;;;;;;;22.30;99.90;;;;;;5114880;28;19946;-33
2023/10/10 13:04:29;;;;;;;;;;;22.30;99.90;;;;;;5116209;28;20416;-33
2023/10/10 13:07:02;;;;;;;;;;;22.30;99.90;;;;;;5116014;28;20201;-33
2023/10/10 13:09:29;;;;;;;;;;;22.20;99.90;;;;;;5116096;28;19937;-33
2023/10/10 13:11:57;;;;;;;;;;;22.10;99.90;;;;;;5114735;28;19939;-30
2023/10/10 13:14:25;;;;;;;;;;;22.10;99.90;;;;;;5115996;28;20036;-32
2023/10/10 13:17:13;;;;;;;;;;;22.00;99.90;;;;;;5115805;28;19967;-33
2023/10/10 13:19:40;;;;;;;;;;;22.00;99.90;;;;;;5114849;28;19949;-32
2023/10/10 13:22:20;;;;;;;;;;;21.90;99.90;;;;;;5114602;28;19944;-32
2023/10/10 13:24:47;;;;;;;;;;;21.90;99.90;;;;;;5115991;28;19941;-32
2023/10/10 13:27:14;;;;;;;;;;;21.90;99.90;;;;;;5115812;28;20442;-32
2023/10/10 13:29:40;;;;;;;;;;;21.90;99.90;;;;;;5114761;28;19996;-32
2023/10/10 13:32:07;;;;;;;;;;;21.90;99.90;;;;;;5114385;28;19946;-34
2023/10/10 13:34:37;;;;;;;;;;;21.90;99.90;;;;;;5114530;28;20465;-33
2023/10/10 13:37:07;;;;;;;;;;;21.90;99.90;;;;;;5114510;28;20459;-33
2023/10/10 13:39:43;;;;;;;;;;;22.00;99.90;;;;;;5114414;28;19940;-32
2023/10/10 13:42:11;;;;;;;;;;;22.00;99.90;;;;;;5114427;28;19995;-35
2023/10/10 13:44:37;;;;;;;;;;;22.00;99.90;;;;;;5115410;28;19941;-34
2023/10/10 13:47:04;;;;;;;;;;;22.20;99.90;;;;;;5114070;28;19967;-33
2023/10/10 13:49:31;;;;;;;;;;;22.20;99.90;;;;;;5148552;27;19951;-32
2023/10/10 13:51:59;;;;;;;;;;;22.20;99.90;;;;;;5114111;28;19953;-35
2023/10/10 13:54:26;;;;;;;;;;;22.20;99.90;;;;;;5115252;28;19943;-33
2023/10/10 13:56:54;;;;;;;;;;;22.20;99.90;;;;;;5115077;28;20046;-33
2023/10/10 13:59:21;;;;;;;;;;;22.20;99.90;;;;;;5113769;28;20359;-33
2023/10/10 14:01:48;;;;;;;;;;;22.20;99.90;;;;;;5113975;28;19990;-33
2023/10/10 14:04:15;;;;;;;;;;;22.20;99.90;;;;;;5113873;28;19993;-33
2023/10/10 14:06:47;;;;;;;;;;;22.20;99.90;;;;;;5113939;28;20030;-33
2023/10/10 14:09:21;;;;;;;;;;;22.20;99.90;;;;;;5113831;28;19943;-32
2023/10/10 14:11:49;;;;;;;;;;;22.10;99.90;;;;;;5114602;28;20280;-33
2023/10/10 14:14:17;;;;;;;;;;;22.10;99.90;;;;;;5114815;28;19936;-33
2023/10/10 14:16:43;;;;;;;;;;;22.10;99.90;;;;;;5113271;28;20008;-33
2023/10/10 14:19:10;;;;;;;;;;;22.00;99.90;;;;;;5114323;28;20003;-33
2023/10/10 14:21:38;;;;;;;;;;;22.00;99.90;;;;;;5113453;28;20016;-33
2023/10/10 14:24:07;;;;;;;;;;;22.00;99.90;;;;;;5114431;28;19989;-32
2023/10/10 14:26:35;;;;;;;;;;;22.00;99.90;;;;;;5113192;28;19941;-32
2023/10/10 14:29:05;;;;;;;;;;;22.00;99.90;;;;;;5113550;28;20060;-33
2023/10/10 14:31:33;;;;;;;;;;;22.00;99.90;;;;;;5147084;27;19998;-32
2023/10/10 14:34:00;;;;;;;;;;;21.90;99.90;;;;;;5147784;27;19948;-32
2023/10/10 14:36:27;;;;;;;;;;;21.90;99.90;;;;;;5112918;28;19968;-33
2023/10/10 14:38:56;;;;;;;;;;;21.90;99.90;;;;;;5114488;28;19948;-32
2023/10/10 14:41:23;;;;;;;;;;;21.90;99.90;;;;;;5113222;28;19943;-32
2023/10/10 14:43:50;;;;;;;;;;;21.90;99.90;;;;;;5114018;28;19951;-34
2023/10/10 14:46:21;;;;;;;;;;;21.90;99.90;;;;;;5113764;28;19952;-32
2023/10/10 14:48:50;;;;;;;;;;;21.80;99.90;;;;;;5113110;28;19949;-33
2023/10/10 14:51:18;;;;;;;;;;;21.80;99.90;;;;;;5147322;27;19944;-33
2023/10/10 14:53:51;;;;;;;;;;;21.70;99.90;;;;;;5113911;28;20040;-33
2023/10/10 14:56:22;;;;;;;;;;;21.70;99.90;;;;;;5112555;28;19998;-33
2023/10/10 14:58:49;;;;;;;;;;;21.60;99.90;;;;;;5113705;28;19941;-32
2023/10/10 15:01:18;;;;;;;;;;;21.60;99.90;;;;;;5113486;28;19943;-32
2023/10/10 15:03:44;;;;;;;;;;;21.50;99.90;;;;;;5112934;28;19947;-32
2023/10/10 15:06:15;;;;;;;;;;;21.50;99.90;;;;;;5112651;28;19998;-33
2023/10/10 15:08:43;;;;;;;;;;;21.50;99.90;;;;;;5112734;28;20410;-33
2023/10/10 15:11:11;;;;;;;;;;;21.50;99.90;;;;;;5112249;28;19948;-33
2023/10/10 15:13:41;;;;;;;;;;;21.50;99.90;;;;;;5112514;28;19950;-33
2023/10/10 15:16:09;;;;;;;;;;;21.40;99.90;;;;;;5112400;28;20007;-33
2023/10/10 15:18:36;;;;;;;;;;;21.50;99.90;;;;;;5113384;28;19954;-33
2023/10/10 15:21:03;;;;;;;;;;;21.40;99.90;;;;;;5113545;28;19947;-32
2023/10/10 15:23:31;;;;;;;;;;;21.40;99.90;;;;;;5113469;28;20415;-33
2023/10/10 15:25:59;;;;;;;;;;;21.40;99.90;;;;;;5113221;28;19942;-33
2023/10/10 15:28:28;;;;;;;;;;;21.40;99.90;;;;;;5146315;27;19943;-33
2023/10/10 15:30:54;;;;;;;;;;;21.30;99.90;;;;;;5112229;28;19944;-32
2023/10/10 15:33:22;;;;;;;;;;;21.30;99.90;;;;;;5113274;28;20309;-32
2023/10/10 15:35:52;;;;;;;;;;;21.20;99.90;;;;;;5112113;28;19974;-33
2023/10/10 15:38:19;;;;;;;;;;;21.20;99.90;;;;;;5112184;28;19943;-33
2023/10/10 15:40:47;;;;;;;;;;;21.10;99.90;;;;;;5112092;28;19999;-33
2023/10/10 15:43:14;;;;;;;;;;;21.10;99.90;;;;;;5111747;28;19941;-33
2023/10/10 15:45:44;;;;;;;;;;;21.10;99.90;;;;;;5112295;28;19980;-33
2023/10/10 15:48:21;;;;;;;;;;;21.10;99.90;;;;;;5111636;28;19979;-33
2023/10/10 15:50:50;;;;;;;;;;;21.10;99.90;;;;;;5113090;28;19959;-32
2023/10/10 15:53:18;;;;;;;;;;;21.00;99.90;;;;;;5113041;28;19941;-33
2023/10/10 15:55:44;;;;;;;;;;;21.00;99.90;;;;;;5111551;28;20389;-33
2023/10/10 15:58:12;;;;;;;;;;;21.00;99.90;;;;;;5113021;28;20007;-33
2023/10/10 16:00:39;;;;;;;;;;;20.90;99.90;;;;;;5112760;28;20003;-33
2023/10/10 16:03:06;;;;;;;;;;;20.80;99.90;;;;;;5112676;28;20391;-31
2023/10/10 16:05:39;;;;;;;;;;;20.80;99.90;;;;;;5111707;28;19941;-32
2023/10/10 16:08:05;;;;;;;;;;;20.80;99.90;;;;;;5111953;28;19966;-33
2023/10/10 16:10:32;;;;;;;;;;;20.70;99.90;;;;;;5111780;28;20013;-33
2023/10/10 16:12:59;;;;;;;;;;;20.60;99.90;;;;;;5112072;28;20354;-33
2023/10/10 16:15:28;;;;;;;;;;;20.60;99.90;;;;;;5112875;28;20033;-33
2023/10/10 16:17:54;;;;;;;;;;;20.50;99.90;;;;;;5112824;28;20059;-33
2023/10/10 16:20:22;;;;;;;;;;;20.50;99.90;;;;;;5111662;28;20001;-32
2023/10/10 16:22:48;;;;;;;;;;;20.40;99.90;;;;;;5112737;28;19947;-32
2023/10/10 16:25:15;;;;;;;;;;;20.40;99.90;;;;;;5112456;28;20402;-33
2023/10/10 16:27:42;;;;;;;;;;;20.30;99.90;;;;;;5111848;28;19950;-33
2023/10/10 16:30:10;;;;;;;;;;;20.30;99.90;;;;;;5111408;28;19944;-33